sensor_id;sensor_type;location;lat;lon;timestamp;P1;durP1;ratioP1;P2;durP2;ratioP2
32038;SDS011;18549;42.286;22.688;2022-09-29T00:02:05;28.45;;;19.48;;
32038;SDS011;18549;42.286;22.688;2022-09-29T00:04:32;43.65;;;18.92;;
32038;SDS011;18549;42.286;22.688;2022-09-29T00:06:59;38.38;;;16.42;;
32038;SDS011;18549;42.286;22.688;2022-09-29T00:09:26;45.00;;;18.92;;
32038;SDS011;18549;42.286;22.688;2022-09-29T00:11:53;9.52;;;5.82;;
32038;SDS011;18549;42.286;22.688;2022-09-29T00:14:20;17.90;;;11.68;;
32038;SDS011;18549;42.286;22.688;2022-09-29T00:16:49;9.02;;;4.70;;
32038;SDS011;18549;42.286;22.688;2022-09-29T00:19:17;7.03;;;3.37;;
32038;SDS011;18549;42.286;22.688;2022-09-29T00:21:44;7.53;;;4.25;;
32038;SDS011;18549;42.286;22.688;2022-09-29T00:24:11;9.02;;;4.60;;
32038;SDS011;18549;42.286;22.688;2022-09-29T00:26:38;11.27;;;5.65;;
32038;SDS011;18549;42.286;22.688;2022-09-29T00:29:05;6.78;;;4.40;;
32038;SDS011;18549;42.286;22.688;2022-09-29T00:31:32;5.95;;;3.42;;
32038;SDS011;18549;42.286;22.688;2022-09-29T00:34:01;3.37;;;2.45;;
32038;SDS011;18549;42.286;22.688;2022-09-29T00:36:28;8.43;;;3.33;;
32038;SDS011;18549;42.286;22.688;2022-09-29T00:38:55;7.82;;;3.12;;
32038;SDS011;18549;42.286;22.688;2022-09-29T00:41:23;11.95;;;4.60;;
32038;SDS011;18549;42.286;22.688;2022-09-29T00:43:53;8.85;;;3.03;;
32038;SDS011;18549;42.286;22.688;2022-09-29T00:46:26;15.07;;;3.08;;
32038;SDS011;18549;42.286;22.688;2022-09-29T00:49:02;13.15;;;3.65;;
32038;SDS011;18549;42.286;22.688;2022-09-29T00:51:33;7.32;;;2.90;;
32038;SDS011;18549;42.286;22.688;2022-09-29T00:54:04;7.72;;;2.92;;
32038;SDS011;18549;42.286;22.688;2022-09-29T00:56:33;6.47;;;3.35;;
32038;SDS011;18549;42.286;22.688;2022-09-29T00:59:04;5.75;;;3.08;;
32038;SDS011;18549;42.286;22.688;2022-09-29T01:01:34;9.00;;;2.75;;
32038;SDS011;18549;42.286;22.688;2022-09-29T01:04:04;8.13;;;3.28;;
32038;SDS011;18549;42.286;22.688;2022-09-29T01:06:35;11.02;;;4.03;;
32038;SDS011;18549;42.286;22.688;2022-09-29T01:09:05;7.70;;;3.33;;
32038;SDS011;18549;42.286;22.688;2022-09-29T01:11:34;4.50;;;3.03;;
32038;SDS011;18549;42.286;22.688;2022-09-29T01:14:02;4.55;;;3.33;;
32038;SDS011;18549;42.286;22.688;2022-09-29T01:16:32;7.50;;;3.05;;
32038;SDS011;18549;42.286;22.688;2022-09-29T01:19:01;10.13;;;3.53;;
32038;SDS011;18549;42.286;22.688;2022-09-29T01:21:33;9.80;;;3.60;;
32038;SDS011;18549;42.286;22.688;2022-09-29T01:24:08;4.90;;;3.47;;
32038;SDS011;18549;42.286;22.688;2022-09-29T01:27:13;9.05;;;4.45;;
32038;SDS011;18549;42.286;22.688;2022-09-29T01:29:57;9.77;;;3.83;;
32038;SDS011;18549;42.286;22.688;2022-09-29T01:32:45;8.23;;;3.90;;
32038;SDS011;18549;42.286;22.688;2022-09-29T01:35:36;11.30;;;4.00;;
32038;SDS011;18549;42.286;22.688;2022-09-29T01:38:14;6.82;;;3.65;;
32038;SDS011;18549;42.286;22.688;2022-09-29T01:40:57;13.00;;;3.87;;
32038;SDS011;18549;42.286;22.688;2022-09-29T01:43:31;7.05;;;3.35;;
32038;SDS011;18549;42.286;22.688;2022-09-29T01:46:02;9.55;;;3.12;;
32038;SDS011;18549;42.286;22.688;2022-09-29T01:48:36;7.97;;;4.00;;
32038;SDS011;18549;42.286;22.688;2022-09-29T01:51:06;6.40;;;3.05;;
32038;SDS011;18549;42.286;22.688;2022-09-29T01:53:39;6.18;;;3.15;;
32038;SDS011;18549;42.286;22.688;2022-09-29T01:56:10;7.25;;;3.15;;
32038;SDS011;18549;42.286;22.688;2022-09-29T01:58:43;12.00;;;3.42;;
32038;SDS011;18549;42.286;22.688;2022-09-29T02:01:16;4.68;;;2.87;;
32038;SDS011;18549;42.286;22.688;2022-09-29T02:03:49;7.00;;;3.30;;
32038;SDS011;18549;42.286;22.688;2022-09-29T02:06:20;10.45;;;3.70;;
32038;SDS011;18549;42.286;22.688;2022-09-29T02:08:51;6.72;;;3.45;;
32038;SDS011;18549;42.286;22.688;2022-09-29T02:11:19;5.97;;;3.40;;
32038;SDS011;18549;42.286;22.688;2022-09-29T02:13:48;9.13;;;3.58;;
32038;SDS011;18549;42.286;22.688;2022-09-29T02:16:18;5.78;;;3.45;;
32038;SDS011;18549;42.286;22.688;2022-09-29T02:18:51;15.77;;;4.05;;
32038;SDS011;18549;42.286;22.688;2022-09-29T02:21:20;9.40;;;3.80;;
32038;SDS011;18549;42.286;22.688;2022-09-29T02:23:48;13.62;;;3.85;;
32038;SDS011;18549;42.286;22.688;2022-09-29T02:26:15;7.90;;;3.70;;
32038;SDS011;18549;42.286;22.688;2022-09-29T02:28:44;7.72;;;3.80;;
32038;SDS011;18549;42.286;22.688;2022-09-29T02:31:11;8.45;;;3.75;;
32038;SDS011;18549;42.286;22.688;2022-09-29T02:33:38;9.80;;;3.55;;
32038;SDS011;18549;42.286;22.688;2022-09-29T02:36:10;8.80;;;4.15;;
32038;SDS011;18549;42.286;22.688;2022-09-29T02:38:50;7.78;;;3.72;;
32038;SDS011;18549;42.286;22.688;2022-09-29T02:41:24;4.05;;;2.50;;
32038;SDS011;18549;42.286;22.688;2022-09-29T02:46:57;4.85;;;2.92;;
32038;SDS011;18549;42.286;22.688;2022-09-29T02:49:52;4.90;;;2.62;;
32038;SDS011;18549;42.286;22.688;2022-09-29T02:52:33;7.80;;;3.05;;
32038;SDS011;18549;42.286;22.688;2022-09-29T02:55:10;15.15;;;3.65;;
32038;SDS011;18549;42.286;22.688;2022-09-29T02:57:45;4.55;;;3.15;;
32038;SDS011;18549;42.286;22.688;2022-09-29T03:00:16;7.65;;;4.20;;
32038;SDS011;18549;42.286;22.688;2022-09-29T03:02:44;6.32;;;3.75;;
32038;SDS011;18549;42.286;22.688;2022-09-29T03:05:12;8.77;;;3.78;;
32038;SDS011;18549;42.286;22.688;2022-09-29T03:07:42;11.98;;;4.68;;
32038;SDS011;18549;42.286;22.688;2022-09-29T03:10:09;7.35;;;4.68;;
32038;SDS011;18549;42.286;22.688;2022-09-29T03:12:37;9.45;;;4.50;;
32038;SDS011;18549;42.286;22.688;2022-09-29T03:15:04;7.35;;;4.07;;
32038;SDS011;18549;42.286;22.688;2022-09-29T03:17:32;11.60;;;3.83;;
32038;SDS011;18549;42.286;22.688;2022-09-29T03:19:59;11.60;;;4.45;;
32038;SDS011;18549;42.286;22.688;2022-09-29T03:22:27;8.20;;;3.62;;
32038;SDS011;18549;42.286;22.688;2022-09-29T03:24:55;5.37;;;3.72;;
32038;SDS011;18549;42.286;22.688;2022-09-29T03:27:22;7.40;;;4.20;;
32038;SDS011;18549;42.286;22.688;2022-09-29T03:29:49;4.90;;;3.22;;
32038;SDS011;18549;42.286;22.688;2022-09-29T03:32:16;11.23;;;4.15;;
32038;SDS011;18549;42.286;22.688;2022-09-29T03:34:43;11.30;;;4.15;;
32038;SDS011;18549;42.286;22.688;2022-09-29T03:37:10;12.25;;;3.80;;
32038;SDS011;18549;42.286;22.688;2022-09-29T03:39:36;11.98;;;4.30;;
32038;SDS011;18549;42.286;22.688;2022-09-29T03:42:05;12.45;;;4.43;;
32038;SDS011;18549;42.286;22.688;2022-09-29T03:44:31;9.95;;;3.90;;
32038;SDS011;18549;42.286;22.688;2022-09-29T03:46:58;8.98;;;4.18;;
32038;SDS011;18549;42.286;22.688;2022-09-29T03:49:25;10.63;;;4.28;;
32038;SDS011;18549;42.286;22.688;2022-09-29T03:51:52;6.03;;;4.07;;
32038;SDS011;18549;42.286;22.688;2022-09-29T03:54:19;14.80;;;3.90;;
32038;SDS011;18549;42.286;22.688;2022-09-29T03:56:48;10.65;;;4.75;;
32038;SDS011;18549;42.286;22.688;2022-09-29T03:59:16;18.35;;;5.72;;
32038;SDS011;18549;42.286;22.688;2022-09-29T04:01:46;12.98;;;6.60;;
32038;SDS011;18549;42.286;22.688;2022-09-29T04:04:12;21.40;;;6.43;;
32038;SDS011;18549;42.286;22.688;2022-09-29T04:06:39;13.35;;;6.15;;
32038;SDS011;18549;42.286;22.688;2022-09-29T04:09:06;16.48;;;5.82;;
32038;SDS011;18549;42.286;22.688;2022-09-29T04:11:33;10.23;;;5.55;;
32038;SDS011;18549;42.286;22.688;2022-09-29T04:14:00;13.40;;;5.93;;
32038;SDS011;18549;42.286;22.688;2022-09-29T04:16:28;13.70;;;6.25;;
32038;SDS011;18549;42.286;22.688;2022-09-29T04:18:55;20.45;;;6.50;;
32038;SDS011;18549;42.286;22.688;2022-09-29T04:21:22;15.90;;;7.93;;
32038;SDS011;18549;42.286;22.688;2022-09-29T04:23:49;14.40;;;7.15;;
32038;SDS011;18549;42.286;22.688;2022-09-29T04:26:15;16.53;;;8.10;;
32038;SDS011;18549;42.286;22.688;2022-09-29T04:28:44;18.63;;;8.70;;
32038;SDS011;18549;42.286;22.688;2022-09-29T04:31:11;20.87;;;9.67;;
32038;SDS011;18549;42.286;22.688;2022-09-29T04:33:39;17.92;;;10.27;;
32038;SDS011;18549;42.286;22.688;2022-09-29T04:36:06;22.73;;;9.85;;
32038;SDS011;18549;42.286;22.688;2022-09-29T04:38:33;21.08;;;8.75;;
32038;SDS011;18549;42.286;22.688;2022-09-29T04:41:00;24.60;;;8.93;;
32038;SDS011;18549;42.286;22.688;2022-09-29T04:43:27;26.53;;;9.43;;
32038;SDS011;18549;42.286;22.688;2022-09-29T04:45:59;22.67;;;8.75;;
32038;SDS011;18549;42.286;22.688;2022-09-29T04:48:27;16.37;;;8.73;;
32038;SDS011;18549;42.286;22.688;2022-09-29T04:50:55;15.90;;;7.87;;
32038;SDS011;18549;42.286;22.688;2022-09-29T04:53:22;24.60;;;7.60;;
32038;SDS011;18549;42.286;22.688;2022-09-29T04:55:49;13.82;;;5.78;;
32038;SDS011;18549;42.286;22.688;2022-09-29T04:58:16;18.87;;;5.93;;
32038;SDS011;18549;42.286;22.688;2022-09-29T05:00:42;24.25;;;5.78;;
32038;SDS011;18549;42.286;22.688;2022-09-29T05:03:09;14.52;;;5.60;;
32038;SDS011;18549;42.286;22.688;2022-09-29T05:05:36;10.50;;;5.05;;
32038;SDS011;18549;42.286;22.688;2022-09-29T05:08:05;20.05;;;7.43;;
32038;SDS011;18549;42.286;22.688;2022-09-29T05:10:32;18.70;;;7.93;;
32038;SDS011;18549;42.286;22.688;2022-09-29T05:13:00;20.48;;;9.65;;
32038;SDS011;18549;42.286;22.688;2022-09-29T05:15:26;20.90;;;8.68;;
32038;SDS011;18549;42.286;22.688;2022-09-29T05:17:53;15.63;;;7.25;;
32038;SDS011;18549;42.286;22.688;2022-09-29T05:20:20;12.95;;;4.62;;
32038;SDS011;18549;42.286;22.688;2022-09-29T05:22:47;11.93;;;5.22;;
32038;SDS011;18549;42.286;22.688;2022-09-29T05:25:15;14.73;;;5.55;;
32038;SDS011;18549;42.286;22.688;2022-09-29T05:27:42;15.35;;;6.03;;
32038;SDS011;18549;42.286;22.688;2022-09-29T05:30:09;12.73;;;4.60;;
32038;SDS011;18549;42.286;22.688;2022-09-29T05:32:36;10.05;;;3.67;;
32038;SDS011;18549;42.286;22.688;2022-09-29T05:35:03;8.63;;;3.67;;
32038;SDS011;18549;42.286;22.688;2022-09-29T05:37:32;10.18;;;4.57;;
32038;SDS011;18549;42.286;22.688;2022-09-29T05:39:59;6.82;;;4.10;;
32038;SDS011;18549;42.286;22.688;2022-09-29T05:42:27;6.78;;;3.25;;
32038;SDS011;18549;42.286;22.688;2022-09-29T05:44:57;17.00;;;4.50;;
32038;SDS011;18549;42.286;22.688;2022-09-29T05:47:24;10.38;;;4.35;;
32038;SDS011;18549;42.286;22.688;2022-09-29T05:49:51;12.63;;;4.90;;
32038;SDS011;18549;42.286;22.688;2022-09-29T05:52:17;13.15;;;4.53;;
32038;SDS011;18549;42.286;22.688;2022-09-29T05:54:44;11.45;;;3.80;;
32038;SDS011;18549;42.286;22.688;2022-09-29T05:57:15;14.02;;;4.45;;
32038;SDS011;18549;42.286;22.688;2022-09-29T05:59:43;8.20;;;4.35;;
32038;SDS011;18549;42.286;22.688;2022-09-29T06:02:10;6.50;;;4.37;;
32038;SDS011;18549;42.286;22.688;2022-09-29T06:04:37;11.10;;;4.25;;
32038;SDS011;18549;42.286;22.688;2022-09-29T06:07:04;9.90;;;4.22;;
32038;SDS011;18549;42.286;22.688;2022-09-29T06:09:31;8.30;;;5.10;;
32038;SDS011;18549;42.286;22.688;2022-09-29T06:12:00;7.87;;;4.55;;
32038;SDS011;18549;42.286;22.688;2022-09-29T06:14:27;5.45;;;4.12;;
32038;SDS011;18549;42.286;22.688;2022-09-29T06:16:55;15.25;;;5.12;;
32038;SDS011;18549;42.286;22.688;2022-09-29T06:19:22;17.00;;;5.53;;
32038;SDS011;18549;42.286;22.688;2022-09-29T06:21:49;20.05;;;6.18;;
32038;SDS011;18549;42.286;22.688;2022-09-29T06:24:15;12.82;;;5.37;;
32038;SDS011;18549;42.286;22.688;2022-09-29T06:26:42;12.55;;;5.60;;
32038;SDS011;18549;42.286;22.688;2022-09-29T06:29:09;13.18;;;5.05;;
32038;SDS011;18549;42.286;22.688;2022-09-29T06:31:36;9.93;;;4.43;;
32038;SDS011;18549;42.286;22.688;2022-09-29T06:34:04;12.77;;;3.70;;
32038;SDS011;18549;42.286;22.688;2022-09-29T06:36:33;14.68;;;4.10;;
32038;SDS011;18549;42.286;22.688;2022-09-29T06:39:19;9.75;;;3.97;;
32038;SDS011;18549;42.286;22.688;2022-09-29T06:41:46;7.85;;;4.28;;
32038;SDS011;18549;42.286;22.688;2022-09-29T06:44:17;18.30;;;5.20;;
32038;SDS011;18549;42.286;22.688;2022-09-29T06:46:45;23.83;;;5.00;;
32038;SDS011;18549;42.286;22.688;2022-09-29T06:49:13;25.65;;;5.20;;
32038;SDS011;18549;42.286;22.688;2022-09-29T06:51:40;11.20;;;4.18;;
32038;SDS011;18549;42.286;22.688;2022-09-29T06:54:08;11.00;;;4.55;;
32038;SDS011;18549;42.286;22.688;2022-09-29T06:56:35;12.40;;;4.05;;
32038;SDS011;18549;42.286;22.688;2022-09-29T06:59:02;11.73;;;4.28;;
32038;SDS011;18549;42.286;22.688;2022-09-29T07:01:31;12.98;;;5.05;;
32038;SDS011;18549;42.286;22.688;2022-09-29T07:03:58;9.68;;;4.50;;
32038;SDS011;18549;42.286;22.688;2022-09-29T07:06:27;7.12;;;4.32;;
32038;SDS011;18549;42.286;22.688;2022-09-29T07:08:55;18.17;;;4.87;;
32038;SDS011;18549;42.286;22.688;2022-09-29T07:11:23;9.77;;;4.55;;
32038;SDS011;18549;42.286;22.688;2022-09-29T07:13:51;23.23;;;6.05;;
32038;SDS011;18549;42.286;22.688;2022-09-29T07:16:18;20.88;;;5.32;;
32038;SDS011;18549;42.286;22.688;2022-09-29T07:18:44;17.70;;;5.72;;
32038;SDS011;18549;42.286;22.688;2022-09-29T07:21:13;13.90;;;5.72;;
32038;SDS011;18549;42.286;22.688;2022-09-29T07:23:44;14.70;;;5.43;;
32038;SDS011;18549;42.286;22.688;2022-09-29T07:26:11;21.50;;;5.12;;
32038;SDS011;18549;42.286;22.688;2022-09-29T07:28:40;8.15;;;4.12;;
32038;SDS011;18549;42.286;22.688;2022-09-29T07:31:08;7.35;;;3.30;;
32038;SDS011;18549;42.286;22.688;2022-09-29T07:33:37;10.18;;;4.20;;
32038;SDS011;18549;42.286;22.688;2022-09-29T07:36:04;9.18;;;4.45;;
32038;SDS011;18549;42.286;22.688;2022-09-29T07:38:31;7.85;;;2.72;;
32038;SDS011;18549;42.286;22.688;2022-09-29T07:41:00;8.40;;;3.28;;
32038;SDS011;18549;42.286;22.688;2022-09-29T07:43:28;12.10;;;2.90;;
32038;SDS011;18549;42.286;22.688;2022-09-29T07:45:55;10.52;;;3.47;;
32038;SDS011;18549;42.286;22.688;2022-09-29T07:48:24;6.12;;;3.00;;
32038;SDS011;18549;42.286;22.688;2022-09-29T07:50:58;6.60;;;2.85;;
32038;SDS011;18549;42.286;22.688;2022-09-29T07:53:26;9.13;;;2.53;;
32038;SDS011;18549;42.286;22.688;2022-09-29T07:55:53;9.60;;;3.22;;
32038;SDS011;18549;42.286;22.688;2022-09-29T07:58:23;9.52;;;3.28;;
32038;SDS011;18549;42.286;22.688;2022-09-29T08:00:53;5.53;;;2.10;;
32038;SDS011;18549;42.286;22.688;2022-09-29T08:03:21;7.72;;;3.15;;
32038;SDS011;18549;42.286;22.688;2022-09-29T08:05:49;12.68;;;3.03;;
32038;SDS011;18549;42.286;22.688;2022-09-29T08:08:16;6.90;;;3.75;;
32038;SDS011;18549;42.286;22.688;2022-09-29T08:10:43;5.87;;;2.12;;
32038;SDS011;18549;42.286;22.688;2022-09-29T08:13:10;9.95;;;2.37;;
32038;SDS011;18549;42.286;22.688;2022-09-29T08:15:38;4.47;;;2.30;;
32038;SDS011;18549;42.286;22.688;2022-09-29T08:18:05;6.95;;;2.35;;
32038;SDS011;18549;42.286;22.688;2022-09-29T08:20:32;6.70;;;1.90;;
32038;SDS011;18549;42.286;22.688;2022-09-29T08:23:00;3.47;;;2.40;;
32038;SDS011;18549;42.286;22.688;2022-09-29T08:25:27;7.90;;;2.42;;
32038;SDS011;18549;42.286;22.688;2022-09-29T08:27:54;8.15;;;1.95;;
32038;SDS011;18549;42.286;22.688;2022-09-29T08:30:20;5.05;;;2.10;;
32038;SDS011;18549;42.286;22.688;2022-09-29T08:32:51;8.40;;;2.00;;
32038;SDS011;18549;42.286;22.688;2022-09-29T08:35:19;9.50;;;3.35;;
32038;SDS011;18549;42.286;22.688;2022-09-29T08:37:46;6.30;;;2.95;;
32038;SDS011;18549;42.286;22.688;2022-09-29T08:40:13;10.70;;;2.22;;
32038;SDS011;18549;42.286;22.688;2022-09-29T08:42:42;4.68;;;1.85;;
32038;SDS011;18549;42.286;22.688;2022-09-29T08:45:18;8.13;;;2.25;;
32038;SDS011;18549;42.286;22.688;2022-09-29T08:47:52;8.27;;;2.87;;
32038;SDS011;18549;42.286;22.688;2022-09-29T08:50:30;13.98;;;3.22;;
32038;SDS011;18549;42.286;22.688;2022-09-29T08:53:01;9.20;;;2.95;;
32038;SDS011;18549;42.286;22.688;2022-09-29T08:55:33;11.60;;;3.30;;
32038;SDS011;18549;42.286;22.688;2022-09-29T08:58:08;5.05;;;2.72;;
32038;SDS011;18549;42.286;22.688;2022-09-29T09:00:39;5.12;;;2.30;;
32038;SDS011;18549;42.286;22.688;2022-09-29T09:06:09;10.23;;;2.30;;
32038;SDS011;18549;42.286;22.688;2022-09-29T09:11:40;3.87;;;2.20;;
32038;SDS011;18549;42.286;22.688;2022-09-29T09:14:20;8.75;;;2.62;;
32038;SDS011;18549;42.286;22.688;2022-09-29T09:17:08;15.23;;;3.03;;
32038;SDS011;18549;42.286;22.688;2022-09-29T09:22:37;11.75;;;2.85;;
32038;SDS011;18549;42.286;22.688;2022-09-29T09:25:18;13.18;;;3.47;;
32038;SDS011;18549;42.286;22.688;2022-09-29T09:27:53;8.43;;;3.03;;
32038;SDS011;18549;42.286;22.688;2022-09-29T09:30:28;13.93;;;2.62;;
32038;SDS011;18549;42.286;22.688;2022-09-29T09:33:05;5.70;;;2.95;;
32038;SDS011;18549;42.286;22.688;2022-09-29T09:35:39;5.35;;;2.50;;
32038;SDS011;18549;42.286;22.688;2022-09-29T09:38:11;7.75;;;2.33;;
32038;SDS011;18549;42.286;22.688;2022-09-29T09:40:42;9.07;;;2.70;;
32038;SDS011;18549;42.286;22.688;2022-09-29T09:43:13;6.03;;;2.87;;
32038;SDS011;18549;42.286;22.688;2022-09-29T09:45:50;6.95;;;2.87;;
32038;SDS011;18549;42.286;22.688;2022-09-29T09:48:24;9.73;;;2.72;;
32038;SDS011;18549;42.286;22.688;2022-09-29T09:50:56;11.02;;;2.65;;
32038;SDS011;18549;42.286;22.688;2022-09-29T09:53:25;6.07;;;2.10;;
32038;SDS011;18549;42.286;22.688;2022-09-29T09:56:00;8.23;;;2.92;;
32038;SDS011;18549;42.286;22.688;2022-09-29T09:58:38;8.70;;;3.30;;
32038;SDS011;18549;42.286;22.688;2022-09-29T10:01:16;9.30;;;2.67;;
32038;SDS011;18549;42.286;22.688;2022-09-29T10:03:44;12.43;;;3.05;;
32038;SDS011;18549;42.286;22.688;2022-09-29T10:06:12;7.68;;;2.92;;
32038;SDS011;18549;42.286;22.688;2022-09-29T10:08:39;8.88;;;3.40;;
32038;SDS011;18549;42.286;22.688;2022-09-29T10:11:11;3.95;;;2.47;;
32038;SDS011;18549;42.286;22.688;2022-09-29T10:13:48;6.05;;;2.75;;
32038;SDS011;18549;42.286;22.688;2022-09-29T10:16:18;9.45;;;3.55;;
32038;SDS011;18549;42.286;22.688;2022-09-29T10:18:53;5.93;;;2.95;;
32038;SDS011;18549;42.286;22.688;2022-09-29T10:21:21;5.62;;;2.78;;
32038;SDS011;18549;42.286;22.688;2022-09-29T10:24:02;9.40;;;3.00;;
32038;SDS011;18549;42.286;22.688;2022-09-29T10:26:32;8.65;;;2.67;;
32038;SDS011;18549;42.286;22.688;2022-09-29T10:29:02;8.27;;;2.78;;
32038;SDS011;18549;42.286;22.688;2022-09-29T10:31:43;7.57;;;3.22;;
32038;SDS011;18549;42.286;22.688;2022-09-29T10:34:24;3.75;;;1.92;;
32038;SDS011;18549;42.286;22.688;2022-09-29T10:36:55;9.32;;;7.15;;
32038;SDS011;18549;42.286;22.688;2022-09-29T10:39:37;13.00;;;5.45;;
32038;SDS011;18549;42.286;22.688;2022-09-29T10:42:19;4.32;;;1.92;;
32038;SDS011;18549;42.286;22.688;2022-09-29T10:44:51;7.20;;;3.47;;
32038;SDS011;18549;42.286;22.688;2022-09-29T10:47:20;9.68;;;2.60;;
32038;SDS011;18549;42.286;22.688;2022-09-29T10:49:52;4.25;;;2.28;;
32038;SDS011;18549;42.286;22.688;2022-09-29T10:52:35;4.18;;;2.15;;
32038;SDS011;18549;42.286;22.688;2022-09-29T10:55:03;7.55;;;2.37;;
32038;SDS011;18549;42.286;22.688;2022-09-29T10:57:31;10.25;;;3.12;;
32038;SDS011;18549;42.286;22.688;2022-09-29T11:00:01;9.02;;;2.75;;
32038;SDS011;18549;42.286;22.688;2022-09-29T11:02:31;4.25;;;2.03;;
32038;SDS011;18549;42.286;22.688;2022-09-29T11:05:02;3.87;;;1.90;;
32038;SDS011;18549;42.286;22.688;2022-09-29T11:07:31;7.28;;;2.30;;
32038;SDS011;18549;42.286;22.688;2022-09-29T11:10:00;4.95;;;2.15;;
32038;SDS011;18549;42.286;22.688;2022-09-29T11:12:28;4.68;;;2.22;;
32038;SDS011;18549;42.286;22.688;2022-09-29T11:14:57;7.30;;;2.55;;
32038;SDS011;18549;42.286;22.688;2022-09-29T11:17:26;12.55;;;2.20;;
32038;SDS011;18549;42.286;22.688;2022-09-29T11:19:54;3.35;;;2.20;;
32038;SDS011;18549;42.286;22.688;2022-09-29T11:22:45;10.27;;;2.95;;
32038;SDS011;18549;42.286;22.688;2022-09-29T11:28:40;5.78;;;1.60;;
32038;SDS011;18549;42.286;22.688;2022-09-29T11:31:28;5.50;;;1.98;;
32038;SDS011;18549;42.286;22.688;2022-09-29T11:34:10;8.85;;;1.67;;
32038;SDS011;18549;42.286;22.688;2022-09-29T11:37:00;6.53;;;1.77;;
32038;SDS011;18549;42.286;22.688;2022-09-29T11:39:39;4.25;;;1.95;;
32038;SDS011;18549;42.286;22.688;2022-09-29T11:42:23;6.37;;;2.10;;
32038;SDS011;18549;42.286;22.688;2022-09-29T11:45:03;8.63;;;1.95;;
32038;SDS011;18549;42.286;22.688;2022-09-29T11:48:00;8.27;;;1.85;;
32038;SDS011;18549;42.286;22.688;2022-09-29T11:50:50;3.62;;;1.80;;
32038;SDS011;18549;42.286;22.688;2022-09-29T11:53:30;8.95;;;2.53;;
32038;SDS011;18549;42.286;22.688;2022-09-29T11:56:15;7.85;;;1.50;;
32038;SDS011;18549;42.286;22.688;2022-09-29T11:59:11;3.90;;;1.70;;
32038;SDS011;18549;42.286;22.688;2022-09-29T12:02:01;7.47;;;1.65;;
32038;SDS011;18549;42.286;22.688;2022-09-29T12:04:44;5.40;;;1.90;;
32038;SDS011;18549;42.286;22.688;2022-09-29T12:07:21;4.37;;;1.50;;
32038;SDS011;18549;42.286;22.688;2022-09-29T12:09:57;3.85;;;1.90;;
32038;SDS011;18549;42.286;22.688;2022-09-29T12:12:36;4.80;;;2.30;;
32038;SDS011;18549;42.286;22.688;2022-09-29T12:15:16;4.85;;;2.05;;
32038;SDS011;18549;42.286;22.688;2022-09-29T12:17:51;2.72;;;1.75;;
32038;SDS011;18549;42.286;22.688;2022-09-29T12:20:23;7.10;;;2.08;;
32038;SDS011;18549;42.286;22.688;2022-09-29T12:22:52;3.30;;;1.45;;
32038;SDS011;18549;42.286;22.688;2022-09-29T12:25:23;2.65;;;1.40;;
32038;SDS011;18549;42.286;22.688;2022-09-29T12:27:52;2.75;;;1.37;;
32038;SDS011;18549;42.286;22.688;2022-09-29T12:30:23;3.00;;;1.02;;
32038;SDS011;18549;42.286;22.688;2022-09-29T12:32:55;3.65;;;1.33;;
32038;SDS011;18549;42.286;22.688;2022-09-29T12:35:28;2.67;;;1.27;;
32038;SDS011;18549;42.286;22.688;2022-09-29T12:38:01;2.65;;;1.30;;
32038;SDS011;18549;42.286;22.688;2022-09-29T12:40:40;4.85;;;1.67;;
32038;SDS011;18549;42.286;22.688;2022-09-29T12:43:10;2.95;;;1.55;;
32038;SDS011;18549;42.286;22.688;2022-09-29T12:45:50;9.48;;;2.67;;
32038;SDS011;18549;42.286;22.688;2022-09-29T12:48:25;3.35;;;2.10;;
32038;SDS011;18549;42.286;22.688;2022-09-29T12:51:00;3.87;;;1.70;;
32038;SDS011;18549;42.286;22.688;2022-09-29T12:53:34;3.97;;;1.55;;
32038;SDS011;18549;42.286;22.688;2022-09-29T12:56:06;4.30;;;1.75;;
32038;SDS011;18549;42.286;22.688;2022-09-29T12:58:38;5.95;;;1.80;;
32038;SDS011;18549;42.286;22.688;2022-09-29T13:01:19;4.22;;;1.95;;
32038;SDS011;18549;42.286;22.688;2022-09-29T13:04:01;2.65;;;1.50;;
32038;SDS011;18549;42.286;22.688;2022-09-29T13:10:03;5.68;;;2.50;;
32038;SDS011;18549;42.286;22.688;2022-09-29T13:12:46;7.00;;;2.72;;
32038;SDS011;18549;42.286;22.688;2022-09-29T13:15:34;3.12;;;1.83;;
32038;SDS011;18549;42.286;22.688;2022-09-29T13:18:19;7.90;;;1.87;;
32038;SDS011;18549;42.286;22.688;2022-09-29T13:20:57;5.12;;;2.15;;
32038;SDS011;18549;42.286;22.688;2022-09-29T13:23:35;4.57;;;2.28;;
32038;SDS011;18549;42.286;22.688;2022-09-29T13:26:39;6.00;;;2.03;;
32038;SDS011;18549;42.286;22.688;2022-09-29T13:29:24;2.85;;;2.12;;
32038;SDS011;18549;42.286;22.688;2022-09-29T13:31:52;8.65;;;2.28;;
32038;SDS011;18549;42.286;22.688;2022-09-29T13:34:25;2.33;;;1.45;;
32038;SDS011;18549;42.286;22.688;2022-09-29T13:37:03;3.17;;;1.67;;
32038;SDS011;18549;42.286;22.688;2022-09-29T13:39:32;8.85;;;2.40;;
32038;SDS011;18549;42.286;22.688;2022-09-29T13:45:12;7.70;;;2.47;;
32038;SDS011;18549;42.286;22.688;2022-09-29T13:47:59;5.53;;;2.37;;
32038;SDS011;18549;42.286;22.688;2022-09-29T13:50:42;7.05;;;2.17;;
32038;SDS011;18549;42.286;22.688;2022-09-29T13:53:31;15.40;;;2.90;;
32038;SDS011;18549;42.286;22.688;2022-09-29T13:56:12;9.85;;;3.28;;
32038;SDS011;18549;42.286;22.688;2022-09-29T13:58:55;6.55;;;2.62;;
32038;SDS011;18549;42.286;22.688;2022-09-29T14:01:28;8.73;;;2.85;;
32038;SDS011;18549;42.286;22.688;2022-09-29T14:03:57;6.93;;;2.75;;
32038;SDS011;18549;42.286;22.688;2022-09-29T14:06:25;7.05;;;3.03;;
32038;SDS011;18549;42.286;22.688;2022-09-29T14:08:54;6.95;;;3.87;;
32038;SDS011;18549;42.286;22.688;2022-09-29T14:11:28;6.57;;;2.53;;
32038;SDS011;18549;42.286;22.688;2022-09-29T14:13:59;12.65;;;3.60;;
32038;SDS011;18549;42.286;22.688;2022-09-29T14:19:22;21.67;;;4.55;;
32038;SDS011;18549;42.286;22.688;2022-09-29T14:22:03;17.17;;;3.75;;
32038;SDS011;18549;42.286;22.688;2022-09-29T14:24:43;9.90;;;3.22;;
32038;SDS011;18549;42.286;22.688;2022-09-29T14:33:07;6.22;;;3.72;;
32038;SDS011;18549;42.286;22.688;2022-09-29T14:35:38;8.65;;;2.78;;
32038;SDS011;18549;42.286;22.688;2022-09-29T14:38:09;6.80;;;3.12;;
32038;SDS011;18549;42.286;22.688;2022-09-29T14:40:52;8.80;;;3.25;;
32038;SDS011;18549;42.286;22.688;2022-09-29T14:43:22;5.68;;;3.40;;
32038;SDS011;18549;42.286;22.688;2022-09-29T14:52:26;22.35;;;4.35;;
32038;SDS011;18549;42.286;22.688;2022-09-29T14:55:05;8.38;;;3.30;;
32038;SDS011;18549;42.286;22.688;2022-09-29T14:57:46;5.18;;;3.33;;
32038;SDS011;18549;42.286;22.688;2022-09-29T15:00:28;10.20;;;3.58;;
32038;SDS011;18549;42.286;22.688;2022-09-29T15:03:06;14.20;;;4.37;;
32038;SDS011;18549;42.286;22.688;2022-09-29T15:05:34;3.10;;;2.12;;
32038;SDS011;18549;42.286;22.688;2022-09-29T15:08:02;14.48;;;2.78;;
32038;SDS011;18549;42.286;22.688;2022-09-29T15:10:46;7.03;;;2.70;;
32038;SDS011;18549;42.286;22.688;2022-09-29T15:13:13;15.57;;;4.35;;
32038;SDS011;18549;42.286;22.688;2022-09-29T15:15:45;4.75;;;2.95;;
32038;SDS011;18549;42.286;22.688;2022-09-29T15:18:27;21.55;;;3.67;;
32038;SDS011;18549;42.286;22.688;2022-09-29T15:21:05;8.18;;;3.12;;
32038;SDS011;18549;42.286;22.688;2022-09-29T15:26:33;8.43;;;3.65;;
32038;SDS011;18549;42.286;22.688;2022-09-29T15:29:04;13.20;;;3.62;;
32038;SDS011;18549;42.286;22.688;2022-09-29T15:31:32;5.35;;;3.87;;
32038;SDS011;18549;42.286;22.688;2022-09-29T15:34:00;17.65;;;5.37;;
32038;SDS011;18549;42.286;22.688;2022-09-29T15:36:30;18.58;;;4.80;;